createdAt,value
2018-05-13T00:01:34.908Z,19.71
2018-05-13T00:04:02.185Z,19.71
2018-05-13T00:06:29.153Z,19.67
2018-05-13T00:08:56.191Z,19.58
2018-05-13T00:11:24.106Z,19.61
2018-05-13T00:13:51.182Z,19.21
2018-05-13T00:16:18.211Z,18.67
2018-05-13T00:18:45.527Z,18.42
2018-05-13T00:21:12.610Z,18.72
2018-05-13T00:23:39.682Z,18.58
2018-05-13T00:26:06.706Z,18.22
2018-05-13T00:28:33.702Z,18.34
2018-05-13T00:31:00.780Z,18.55
2018-05-13T00:33:27.835Z,18.71
2018-05-13T00:35:54.814Z,18.81
2018-05-13T00:38:21.822Z,18.78
2018-05-13T00:40:48.767Z,18.91
2018-05-13T00:43:15.730Z,18.99
2018-05-13T00:48:23.338Z,19.02
2018-05-13T00:50:50.305Z,19.07
2018-05-13T00:53:17.308Z,19.00
2018-05-13T00:55:44.588Z,19.05
2018-05-13T00:58:11.581Z,19.13
2018-05-13T01:00:38.635Z,19.08
2018-05-13T01:03:05.878Z,19.10
2018-05-13T01:05:32.960Z,19.17
2018-05-13T01:08:07.459Z,19.03
2018-05-13T01:10:34.680Z,18.97
2018-05-13T01:13:01.599Z,18.95
2018-05-13T01:15:28.551Z,18.76
2018-05-13T01:17:55.484Z,18.84
2018-05-13T01:20:22.468Z,19.04
2018-05-13T01:22:49.424Z,18.76
2018-05-13T01:25:16.372Z,18.54
2018-05-13T01:27:43.320Z,18.47
2018-05-13T01:30:10.278Z,18.38
2018-05-13T01:32:37.239Z,18.31
2018-05-13T01:35:04.189Z,18.29
2018-05-13T01:37:31.140Z,18.10
2018-05-13T01:39:58.081Z,18.35
2018-05-13T01:42:25.027Z,18.24
2018-05-13T01:44:51.971Z,18.33
2018-05-13T01:47:18.921Z,17.88
2018-05-13T01:49:45.860Z,17.82
2018-05-13T01:52:12.800Z,17.86
2018-05-13T01:54:39.746Z,17.80
2018-05-13T01:57:06.746Z,17.57
2018-05-13T01:59:33.629Z,17.64
2018-05-13T02:02:00.575Z,17.51
2018-05-13T02:04:27.535Z,17.42
2018-05-13T02:06:55.356Z,17.37
2018-05-13T02:09:22.299Z,17.42
2018-05-13T02:11:49.239Z,17.26
2018-05-13T02:14:16.183Z,17.26
2018-05-13T02:16:43.122Z,17.13
2018-05-13T02:19:10.070Z,16.97
2018-05-13T02:21:37.011Z,16.88
2018-05-13T02:24:03.959Z,16.77
2018-05-13T02:26:30.900Z,16.84
2018-05-13T02:28:57.831Z,16.72
2018-05-13T02:31:24.779Z,16.76
2018-05-13T02:33:51.721Z,16.85
2018-05-13T02:36:18.668Z,16.75
2018-05-13T02:38:45.607Z,16.70
2018-05-13T02:41:12.543Z,16.58
2018-05-13T02:43:39.494Z,16.40
2018-05-13T02:46:06.435Z,16.28
2018-05-13T02:48:33.375Z,16.16
2018-05-13T02:51:00.337Z,16.11
2018-05-13T02:53:27.297Z,16.08
2018-05-13T02:55:54.272Z,16.18
2018-05-13T02:58:21.248Z,16.16
2018-05-13T03:00:48.196Z,16.18
2018-05-13T03:03:15.136Z,16.12
2018-05-13T03:05:42.075Z,16.08
2018-05-13T03:08:09.008Z,16.19
2018-05-13T03:10:35.955Z,16.18
2018-05-13T03:13:02.893Z,16.25
2018-05-13T03:15:29.849Z,16.05
2018-05-13T03:17:56.778Z,15.95
2018-05-13T03:20:23.731Z,15.85
2018-05-13T03:22:50.673Z,16.15
2018-05-13T03:25:17.627Z,16.28
2018-05-13T03:30:48.465Z,16.16
2018-05-13T03:33:15.419Z,16.10
2018-05-13T03:35:42.376Z,16.11
2018-05-13T03:38:09.321Z,16.24
2018-05-13T03:40:36.271Z,16.23
2018-05-13T03:43:03.212Z,16.40
2018-05-13T03:45:30.162Z,16.61
2018-05-13T03:47:57.107Z,16.54
2018-05-13T03:50:24.055Z,16.17
2018-05-13T03:52:50.995Z,16.46
2018-05-13T03:55:17.951Z,16.26
2018-05-13T03:57:44.892Z,16.36
2018-05-13T04:00:11.834Z,16.66
2018-05-13T04:02:38.774Z,16.70
2018-05-13T04:05:05.732Z,16.90
2018-05-13T04:07:32.670Z,17.00
2018-05-13T04:10:05.383Z,17.03
2018-05-13T04:12:38.211Z,17.10
2018-05-13T04:15:10.984Z,17.11
2018-05-13T04:17:38.459Z,17.22
2018-05-13T04:20:05.409Z,17.34
2018-05-13T04:22:32.340Z,17.22
2018-05-13T04:24:59.352Z,16.99
2018-05-13T04:27:26.273Z,17.02
2018-05-13T04:29:53.219Z,17.20
2018-05-13T04:32:20.158Z,17.08
2018-05-13T04:34:47.090Z,17.01
2018-05-13T04:37:14.043Z,17.24
2018-05-13T04:39:40.989Z,17.19
2018-05-13T04:42:07.929Z,17.15
2018-05-13T04:44:34.958Z,16.97
2018-05-13T04:47:01.828Z,16.99
2018-05-13T04:49:28.769Z,17.02
2018-05-13T04:51:55.724Z,17.20
2018-05-13T04:54:22.655Z,17.28
2018-05-13T04:56:49.653Z,17.20
2018-05-13T04:59:16.571Z,17.33
2018-05-13T05:01:43.518Z,17.55
2018-05-13T05:04:10.461Z,17.68
2018-05-13T05:06:37.403Z,17.83
2018-05-13T05:09:04.347Z,17.90
2018-05-13T05:11:31.305Z,17.84
2018-05-13T05:13:58.256Z,17.83
2018-05-13T05:16:25.199Z,18.08
2018-05-13T05:18:52.143Z,18.15
2018-05-13T05:21:19.092Z,18.43
2018-05-13T05:23:46.036Z,18.52
2018-05-13T05:26:12.983Z,18.34
2018-05-13T05:28:39.920Z,18.47
2018-05-13T05:31:06.867Z,18.67
2018-05-13T05:33:33.803Z,18.87
2018-05-13T05:36:00.748Z,18.79
2018-05-13T05:38:27.689Z,18.91
2018-05-13T05:40:54.633Z,18.87
2018-05-13T05:43:21.571Z,18.89
2018-05-13T05:45:48.532Z,19.01
2018-05-13T05:48:15.478Z,18.84
2018-05-13T05:50:42.423Z,18.83
2018-05-13T05:53:09.367Z,18.97
2018-05-13T05:55:36.315Z,19.14
2018-05-13T05:58:03.256Z,19.23
2018-05-13T06:00:30.223Z,19.22
2018-05-13T06:02:57.169Z,19.37
2018-05-13T06:05:24.114Z,19.40
2018-05-13T06:07:51.057Z,19.25
2018-05-13T06:10:18.006Z,19.31
2018-05-13T06:12:44.992Z,19.39
2018-05-13T06:15:11.970Z,19.56
2018-05-13T06:17:38.890Z,19.77
2018-05-13T06:20:05.839Z,19.91
2018-05-13T06:22:32.788Z,19.97
2018-05-13T06:24:59.731Z,20.09
2018-05-13T06:27:27.192Z,20.13
2018-05-13T06:29:54.335Z,20.24
2018-05-13T06:32:21.280Z,20.20
2018-05-13T06:34:48.247Z,20.20
2018-05-13T06:37:15.191Z,20.25
2018-05-13T06:39:42.180Z,20.05
2018-05-13T06:42:09.091Z,20.11
2018-05-13T06:44:36.042Z,20.27
2018-05-13T06:47:03.043Z,20.20
2018-05-13T06:49:29.987Z,20.27
2018-05-13T06:51:56.931Z,20.28
2018-05-13T06:54:23.875Z,20.21
2018-05-13T06:56:50.819Z,20.21
2018-05-13T06:59:17.764Z,20.21
2018-05-13T07:01:44.732Z,20.26
2018-05-13T07:04:11.673Z,20.27
2018-05-13T07:06:38.616Z,20.34
2018-05-13T07:09:05.560Z,20.42
2018-05-13T07:11:32.506Z,20.32
2018-05-13T07:13:59.446Z,20.44
2018-05-13T07:16:26.488Z,20.53
2018-05-13T07:18:53.342Z,20.73
2018-05-13T07:21:20.290Z,20.84
2018-05-13T07:23:47.234Z,20.99
2018-05-13T07:26:14.195Z,21.10
2018-05-13T07:28:41.149Z,21.18
2018-05-13T07:31:08.101Z,21.21
2018-05-13T07:33:35.036Z,21.32
2018-05-13T07:36:01.979Z,21.19
2018-05-13T07:38:29.121Z,21.36
2018-05-13T07:40:56.048Z,21.49
2018-05-13T07:43:23.004Z,21.48
2018-05-13T07:45:50.012Z,21.59
2018-05-13T07:48:16.969Z,21.61
2018-05-13T07:50:43.914Z,21.71
2018-05-13T07:53:10.861Z,21.76
2018-05-13T07:55:37.886Z,21.82
2018-05-13T07:58:04.823Z,21.61
2018-05-13T08:00:31.763Z,21.74
2018-05-13T08:02:58.781Z,21.84
2018-05-13T08:05:25.771Z,21.39
2018-05-13T08:07:52.747Z,21.19
2018-05-13T08:10:19.713Z,21.38
2018-05-13T08:12:46.684Z,21.42
2018-05-13T08:15:13.611Z,21.15
2018-05-13T08:17:40.579Z,21.18
2018-05-13T08:20:07.523Z,21.62
2018-05-13T08:22:34.453Z,21.49
2018-05-13T08:25:01.396Z,21.62
2018-05-13T08:27:28.354Z,21.54
2018-05-13T08:29:55.286Z,21.82
2018-05-13T08:32:22.231Z,22.14
2018-05-13T08:34:49.173Z,22.17
2018-05-13T08:37:16.114Z,22.32
2018-05-13T08:39:43.058Z,22.17
2018-05-13T08:42:10.009Z,22.54
2018-05-13T08:44:36.944Z,22.62
2018-05-13T08:47:03.888Z,22.94
2018-05-13T08:49:30.825Z,23.17
2018-05-13T08:51:57.770Z,23.11
2018-05-13T08:54:24.732Z,23.01
2018-05-13T08:56:51.667Z,23.35
2018-05-13T08:59:18.666Z,23.44
2018-05-13T09:01:45.633Z,23.31
2018-05-13T09:04:12.692Z,23.40
2018-05-13T09:11:53.964Z,25.05
2018-05-13T09:14:21.345Z,25.36
2018-05-13T09:57:12.984Z,26.48
2018-05-13T09:59:40.343Z,25.55
2018-05-13T10:02:07.765Z,25.11
2018-05-13T10:04:35.148Z,24.79
2018-05-13T10:07:02.629Z,24.86
2018-05-13T10:09:30.075Z,24.75
2018-05-13T10:11:57.471Z,24.39
2018-05-13T10:14:24.867Z,24.24
2018-05-13T10:16:52.324Z,24.06
2018-05-13T10:19:19.767Z,23.77
2018-05-13T10:21:47.147Z,23.65
2018-05-13T10:24:14.527Z,23.64
2018-05-13T10:26:41.969Z,23.12
2018-05-13T10:29:09.344Z,22.77
2018-05-13T10:31:36.732Z,22.97
2018-05-13T10:34:04.104Z,23.05
2018-05-13T10:36:31.620Z,22.67
2018-05-13T10:38:58.914Z,23.00
2018-05-13T10:41:26.296Z,23.10
2018-05-13T10:43:53.667Z,22.81
2018-05-13T10:46:21.057Z,22.64
2018-05-13T10:48:48.452Z,22.62
2018-05-13T10:51:16.741Z,22.76
2018-05-13T10:53:44.129Z,22.83
2018-05-13T10:56:11.509Z,22.59
2018-05-13T10:58:38.892Z,22.83
2018-05-13T11:01:06.272Z,22.57
2018-05-13T11:03:33.680Z,22.72
2018-05-13T11:06:01.049Z,22.79
2018-05-13T11:08:28.436Z,22.53
2018-05-13T11:10:55.811Z,22.65
2018-05-13T11:13:23.395Z,22.73
2018-05-13T11:15:50.760Z,22.44
2018-05-13T11:18:18.151Z,22.63
2018-05-13T11:20:45.634Z,22.62
2018-05-13T11:23:12.920Z,22.60
2018-05-13T11:25:40.304Z,22.57
2018-05-13T11:28:07.695Z,22.24
2018-05-13T11:30:35.079Z,22.09
2018-05-13T11:33:02.667Z,22.26
2018-05-13T11:35:30.066Z,22.42
2018-05-13T11:37:57.431Z,22.87
2018-05-13T11:40:24.812Z,22.85
2018-05-13T11:42:52.234Z,22.89
2018-05-13T11:45:19.624Z,23.07
2018-05-13T11:47:47.024Z,23.23
2018-05-13T11:50:14.404Z,23.35
2018-05-13T11:52:41.788Z,23.28
2018-05-13T11:55:09.179Z,23.53
2018-05-13T11:57:36.575Z,23.42
2018-05-13T12:00:03.973Z,23.72
2018-05-13T12:02:31.375Z,23.43
2018-05-13T12:04:58.739Z,23.46
2018-05-13T12:07:26.137Z,23.56
2018-05-13T12:09:53.515Z,23.79
2018-05-13T12:12:20.903Z,24.29
2018-05-13T12:14:48.310Z,24.29
2018-05-13T12:17:15.692Z,24.07
2018-05-13T12:19:43.081Z,24.33
2018-05-13T12:22:10.491Z,24.09
2018-05-13T12:24:37.894Z,24.36
2018-05-13T12:27:05.323Z,24.52
2018-05-13T12:29:32.682Z,24.28
2018-05-13T12:32:00.114Z,23.83
2018-05-13T12:34:27.495Z,24.10
2018-05-13T12:36:54.951Z,23.91
2018-05-13T12:39:22.355Z,23.62
2018-05-13T12:41:49.731Z,23.57
2018-05-13T12:44:17.129Z,23.51
2018-05-13T12:46:44.528Z,23.30
2018-05-13T12:49:12.740Z,23.30
2018-05-13T12:51:40.161Z,23.17
2018-05-13T12:54:07.601Z,22.86
2018-05-13T12:56:35.296Z,23.02
2018-05-13T12:59:02.715Z,23.24
2018-05-13T13:03:42.304Z,23.35
2018-05-13T13:06:09.625Z,23.66
2018-05-13T13:08:36.997Z,23.54
2018-05-13T13:11:04.393Z,23.46
2018-05-13T13:13:31.790Z,23.52
2018-05-13T13:15:59.842Z,23.55
2018-05-13T13:18:27.221Z,23.73
2018-05-13T13:20:54.596Z,23.30
2018-05-13T13:23:21.985Z,23.65
2018-05-13T13:25:49.372Z,23.58
2018-05-13T13:28:29.194Z,23.50
2018-05-13T13:30:59.263Z,23.32
2018-05-13T13:33:31.891Z,23.10
2018-05-13T13:35:59.284Z,23.19
2018-05-13T13:38:26.688Z,23.23
2018-05-13T13:40:54.091Z,23.21
2018-05-13T13:43:21.461Z,23.22
2018-05-13T13:45:48.855Z,23.43
2018-05-13T13:48:16.247Z,23.76
2018-05-13T13:50:43.619Z,23.35
2018-05-13T13:53:10.987Z,23.39
2018-05-13T13:55:38.485Z,23.56
2018-05-13T13:58:05.885Z,23.82
2018-05-13T14:00:33.259Z,24.20
2018-05-13T14:03:00.644Z,24.48
2018-05-13T14:05:28.040Z,24.53
2018-05-13T14:07:55.414Z,24.55
2018-05-13T14:10:22.813Z,24.89
2018-05-13T14:12:50.219Z,24.32
2018-05-13T14:15:18.599Z,24.13
2018-05-13T14:17:45.968Z,24.41
2018-05-13T14:20:13.439Z,24.47
2018-05-13T14:22:40.759Z,24.55
2018-05-13T14:25:08.140Z,23.91
2018-05-13T14:27:35.540Z,23.44
2018-05-13T14:30:02.942Z,23.31
2018-05-13T14:32:30.309Z,23.18
2018-05-13T14:34:57.693Z,23.09
2018-05-13T14:37:25.091Z,23.16
2018-05-13T14:39:52.568Z,23.33
2018-05-13T14:42:19.858Z,23.57
2018-05-13T14:44:47.248Z,23.16
2018-05-13T14:47:14.644Z,22.81
2018-05-13T14:49:42.057Z,22.74
2018-05-13T14:52:09.429Z,23.11
2018-05-13T14:54:36.816Z,23.03
2018-05-13T14:57:04.210Z,22.67
2018-05-13T14:59:31.588Z,22.52
2018-05-13T15:01:58.997Z,22.35
2018-05-13T15:04:26.385Z,22.47
2018-05-13T15:06:53.768Z,22.25
2018-05-13T15:09:22.152Z,22.41
2018-05-13T15:11:48.536Z,22.13
2018-05-13T15:14:15.917Z,21.99
2018-05-13T15:16:43.344Z,21.92
2018-05-13T15:19:10.676Z,21.90
2018-05-13T15:21:38.075Z,22.13
2018-05-13T15:24:05.451Z,22.15
2018-05-13T15:26:32.887Z,22.17
2018-05-13T15:29:00.261Z,22.28
2018-05-13T15:31:27.623Z,22.37
2018-05-13T15:33:55.007Z,22.43
2018-05-13T15:36:22.401Z,22.33
2018-05-13T15:38:50.988Z,22.30
2018-05-13T15:41:18.359Z,22.03
2018-05-13T15:43:45.753Z,22.15
2018-05-13T15:46:13.160Z,21.47
2018-05-13T15:48:40.539Z,21.55
2018-05-13T15:51:07.917Z,21.38
2018-05-13T15:53:35.307Z,21.42
2018-05-13T15:56:02.684Z,21.36
2018-05-13T15:58:30.067Z,21.34
2018-05-13T16:00:57.445Z,21.58
2018-05-13T16:03:24.831Z,21.52
2018-05-13T16:05:52.204Z,21.45
2018-05-13T16:08:19.583Z,21.77
2018-05-13T16:10:46.965Z,21.76
2018-05-13T16:13:14.352Z,21.93
2018-05-13T16:15:41.731Z,22.20
2018-05-13T16:18:09.128Z,21.94
2018-05-13T16:20:36.511Z,21.89
2018-05-13T16:23:03.921Z,21.88
2018-05-13T16:25:31.315Z,21.86
2018-05-13T16:27:58.699Z,21.80
2018-05-13T16:30:26.108Z,21.55
2018-05-13T16:32:53.484Z,21.53
2018-05-13T16:35:21.823Z,21.70
2018-05-13T16:37:49.230Z,21.58
2018-05-13T16:40:16.604Z,21.62
2018-05-13T16:42:43.982Z,21.78
2018-05-13T16:45:11.360Z,21.41
2018-05-13T16:47:38.752Z,21.27
2018-05-13T16:50:06.141Z,21.17
2018-05-13T16:52:33.519Z,21.04
2018-05-13T16:55:00.903Z,21.06
2018-05-13T16:57:28.280Z,20.89
2018-05-13T16:59:55.667Z,21.02
2018-05-13T17:02:23.591Z,20.79
2018-05-13T17:04:50.956Z,20.99
2018-05-13T17:07:18.324Z,20.93
2018-05-13T17:09:45.715Z,20.57
2018-05-13T17:12:13.711Z,20.66
2018-05-13T17:14:41.107Z,20.47
2018-05-13T17:17:08.557Z,20.52
2018-05-13T17:19:35.858Z,20.45
2018-05-13T17:22:03.254Z,20.32
2018-05-13T17:24:30.632Z,20.50
2018-05-13T17:26:58.022Z,20.35
2018-05-13T17:29:25.416Z,20.30
2018-05-13T17:31:53.264Z,20.45
2018-05-13T17:34:20.670Z,20.11
2018-05-13T17:36:48.060Z,20.19
2018-05-13T17:39:15.462Z,20.05
2018-05-13T17:41:42.836Z,19.95
2018-05-13T17:44:10.227Z,20.06
2018-05-13T17:46:37.622Z,20.02
2018-05-13T17:49:05.021Z,20.04
2018-05-13T17:51:32.400Z,19.87
2018-05-13T17:53:59.788Z,19.95
2018-05-13T17:56:27.160Z,19.98
2018-05-13T17:58:54.544Z,19.79
2018-05-13T18:01:21.924Z,19.68
2018-05-13T18:03:49.347Z,19.82
2018-05-13T18:06:16.730Z,19.76
2018-05-13T18:08:44.121Z,19.83
2018-05-13T18:11:11.511Z,19.93
2018-05-13T18:13:38.908Z,20.00
2018-05-13T18:16:06.287Z,20.03
2018-05-13T18:18:33.716Z,20.17
2018-05-13T18:21:01.051Z,19.97
2018-05-13T18:23:28.439Z,20.09
2018-05-13T18:25:55.827Z,20.12
2018-05-13T18:28:23.242Z,20.18
2018-05-13T18:30:51.207Z,20.25
2018-05-13T18:33:18.600Z,20.26
2018-05-13T18:35:45.991Z,20.28
2018-05-13T18:38:13.401Z,20.34
2018-05-13T18:40:40.772Z,20.37
2018-05-13T18:43:08.151Z,20.25
2018-05-13T18:45:35.540Z,20.11
2018-05-13T18:48:02.918Z,19.84
2018-05-13T18:50:30.316Z,19.59
2018-05-13T18:52:57.784Z,19.59
2018-05-13T18:55:25.173Z,19.70
2018-05-13T18:57:52.544Z,19.91
2018-05-13T19:00:19.994Z,20.01
2018-05-13T19:02:47.396Z,20.00
2018-05-13T19:05:14.788Z,20.07
2018-05-13T19:07:42.168Z,19.93
2018-05-13T19:10:09.716Z,19.89
2018-05-13T19:12:37.081Z,19.82
2018-05-13T19:15:04.475Z,19.79
2018-05-13T19:17:33.045Z,19.89
2018-05-13T19:20:00.414Z,19.79
2018-05-13T19:22:27.826Z,19.75
2018-05-13T19:24:55.215Z,19.67
2018-05-13T19:27:22.595Z,19.60
2018-05-13T19:29:50.008Z,19.61
2018-05-13T19:32:17.377Z,19.62
2018-05-13T19:34:44.780Z,19.62
2018-05-13T19:37:12.164Z,19.60
2018-05-13T19:39:39.576Z,19.56
2018-05-13T19:42:06.977Z,19.43
2018-05-13T19:44:34.397Z,19.47
2018-05-13T19:47:01.772Z,19.47
2018-05-13T19:49:29.175Z,19.47
2018-05-13T19:51:56.589Z,19.36
2018-05-13T19:54:23.980Z,19.30
2018-05-13T19:56:51.360Z,19.23
2018-05-13T19:59:21.415Z,19.12
2018-05-13T20:01:49.506Z,18.99
2018-05-13T20:04:16.939Z,18.98
2018-05-13T20:06:44.324Z,18.83
2018-05-13T20:09:11.856Z,18.79
2018-05-13T20:11:39.324Z,18.69
2018-05-13T20:14:06.768Z,18.50
2018-05-13T20:16:34.134Z,18.60
2018-05-13T20:19:01.524Z,18.45
2018-05-13T20:21:28.911Z,18.30
2018-05-13T20:23:56.352Z,18.31
2018-05-13T20:26:23.733Z,18.31
2018-05-13T20:28:51.140Z,18.24
2018-05-13T20:31:18.524Z,18.04
2018-05-13T20:33:45.929Z,17.92
2018-05-13T20:36:13.357Z,17.86
2018-05-13T20:38:40.727Z,17.81
2018-05-13T20:41:08.118Z,17.63
2018-05-13T20:43:35.508Z,17.55
2018-05-13T20:46:02.901Z,17.41
2018-05-13T20:48:30.308Z,17.39
2018-05-13T20:50:57.800Z,17.33
2018-05-13T20:53:25.216Z,17.38
2018-05-13T20:55:52.603Z,17.40
2018-05-13T20:58:20.010Z,17.30
2018-05-13T21:00:47.416Z,17.34
2018-05-13T21:03:15.703Z,17.28
2018-05-13T21:05:43.102Z,17.36
2018-05-13T21:08:10.486Z,17.25
2018-05-13T21:10:37.934Z,17.28
2018-05-13T21:13:05.306Z,17.36
2018-05-13T21:15:33.230Z,17.40
2018-05-13T21:18:00.630Z,17.39
2018-05-13T21:20:28.043Z,17.39
2018-05-13T21:22:55.441Z,17.43
2018-05-13T21:25:22.821Z,17.35
2018-05-13T21:27:50.198Z,17.20
2018-05-13T21:30:17.671Z,17.18
2018-05-13T21:32:45.032Z,17.20
2018-05-13T21:35:12.468Z,17.06
2018-05-13T21:37:39.869Z,17.09
2018-05-13T21:40:07.285Z,17.06
2018-05-13T21:42:34.694Z,17.03
2018-05-13T21:45:02.936Z,16.94
2018-05-13T21:47:30.333Z,16.87
2018-05-13T21:52:40.198Z,16.80
2018-05-13T21:55:17.618Z,16.81
2018-05-13T22:00:20.981Z,16.77
2018-05-13T22:02:48.423Z,16.83
2018-05-13T22:05:15.919Z,16.88
2018-05-13T22:07:43.382Z,16.89
2018-05-13T22:10:10.841Z,16.86
2018-05-13T22:12:38.245Z,16.87
2018-05-13T22:15:05.661Z,16.95
2018-05-13T22:17:33.094Z,17.01
2018-05-13T22:20:00.467Z,17.03
2018-05-13T22:22:27.888Z,17.08
2018-05-13T22:24:56.953Z,17.12
2018-05-13T22:27:24.369Z,17.20
2018-05-13T22:29:51.825Z,17.19
2018-05-13T22:32:19.246Z,17.21
2018-05-13T22:34:46.671Z,17.24
2018-05-13T22:37:14.036Z,17.18
2018-05-13T22:39:41.414Z,17.16
2018-05-13T22:42:08.798Z,17.14
2018-05-13T22:44:36.172Z,17.15
2018-05-13T22:47:03.566Z,17.16
2018-05-13T22:49:30.948Z,17.12
2018-05-13T22:51:58.336Z,17.08
2018-05-13T22:54:25.729Z,17.12
2018-05-13T22:56:53.104Z,16.94
2018-05-13T22:59:20.475Z,16.80
2018-05-13T23:01:47.873Z,16.77
2018-05-13T23:04:15.259Z,16.87
2018-05-13T23:06:42.650Z,16.95
2018-05-13T23:09:10.042Z,16.95
2018-05-13T23:11:37.425Z,16.79
2018-05-13T23:14:04.809Z,16.89
2018-05-13T23:16:32.192Z,16.77
2018-05-13T23:18:59.572Z,16.75
2018-05-13T23:21:26.951Z,16.98
2018-05-13T23:23:54.372Z,17.03
2018-05-13T23:26:21.745Z,17.09
2018-05-13T23:28:49.128Z,16.96
2018-05-13T23:31:16.504Z,16.83
2018-05-13T23:33:43.893Z,16.67
2018-05-13T23:36:11.267Z,16.75
2018-05-13T23:38:39.533Z,16.79
2018-05-13T23:41:06.945Z,16.91
2018-05-13T23:43:34.363Z,16.70
2018-05-13T23:46:01.798Z,16.67
2018-05-13T23:48:29.171Z,16.59
2018-05-13T23:50:56.553Z,16.79
2018-05-13T23:53:23.944Z,16.74
2018-05-13T23:55:51.343Z,16.64
2018-05-13T23:58:18.716Z,16.74
